createdAt,value
2019-01-13T00:00:51.278Z,59.05
2019-01-13T00:01:51.268Z,59.42
2019-01-13T00:02:51.258Z,59.32
2019-01-13T00:03:51.254Z,58.65
2019-01-13T00:04:51.236Z,58.62
2019-01-13T00:05:51.224Z,58.72
2019-01-13T00:06:51.213Z,59.32
2019-01-13T00:07:51.200Z,58.72
2019-01-13T00:08:51.203Z,58.52
2019-01-13T00:09:51.179Z,59.12
2019-01-13T00:10:51.166Z,58.75
2019-01-13T00:11:51.157Z,58.62
2019-01-13T00:12:51.144Z,58.82
2019-01-13T00:13:51.133Z,58.95
2019-01-13T00:14:51.132Z,58.72
2019-01-13T00:15:51.113Z,59.12
2019-01-13T00:16:51.100Z,59.02
2019-01-13T00:17:51.088Z,58.95
2019-01-13T00:18:51.081Z,59.15
2019-01-13T00:19:51.074Z,59.05
2019-01-13T00:20:51.056Z,58.22
2019-01-13T00:21:51.043Z,59.25
2019-01-13T00:22:51.031Z,59.15
2019-01-13T00:23:51.022Z,58.95
2019-01-13T00:24:51.019Z,59.15
2019-01-13T00:25:50.998Z,58.95
2019-01-13T00:26:50.989Z,58.95
2019-01-13T00:27:50.975Z,58.95
2019-01-13T00:28:50.963Z,59.12
2019-01-13T00:29:50.963Z,58.45
2019-01-13T00:30:50.943Z,58.75
2019-01-13T00:31:50.931Z,58.35
2019-01-13T00:32:50.922Z,58.85
2019-01-13T00:33:50.912Z,58.55
2019-01-13T00:34:50.908Z,58.55
2019-01-13T00:35:50.887Z,58.35
2019-01-13T00:36:50.877Z,58.55
2019-01-13T00:37:50.863Z,58.65
2019-01-13T00:38:50.854Z,58.35
2019-01-13T00:39:50.851Z,58.75
2019-01-13T00:40:50.829Z,58.85
2019-01-13T00:41:50.822Z,58.85
2019-01-13T00:42:50.808Z,58.85
2019-01-13T00:43:50.797Z,58.55
2019-01-13T00:44:50.805Z,58.65
2019-01-13T00:45:50.774Z,58.25
2019-01-13T00:46:50.763Z,58.45
2019-01-13T00:47:50.751Z,58.25
2019-01-13T00:48:50.742Z,58.25
2019-01-13T00:49:50.729Z,58.25
2019-01-13T00:50:50.726Z,58.25
2019-01-13T00:51:50.706Z,58.05
2019-01-13T00:52:50.698Z,58.25
2019-01-13T00:53:50.686Z,57.95
2019-01-13T00:54:50.674Z,58.25
2019-01-13T00:55:50.672Z,58.15
2019-01-13T00:56:50.650Z,58.05
2019-01-13T00:57:50.639Z,58.05
2019-01-13T00:58:50.631Z,58.05
2019-01-13T00:59:50.618Z,58.05
2019-01-13T01:00:50.616Z,57.65
2019-01-13T01:01:50.594Z,57.95
2019-01-13T01:02:50.595Z,57.85
2019-01-13T01:03:50.574Z,57.85
2019-01-13T01:04:50.561Z,57.95
2019-01-13T01:05:50.561Z,57.85
2019-01-13T01:06:50.539Z,57.75
2019-01-13T01:07:50.529Z,58.15
2019-01-13T01:08:50.518Z,57.75
2019-01-13T01:09:50.504Z,57.65
2019-01-13T01:10:50.503Z,57.65
2019-01-13T01:11:50.484Z,57.55
2019-01-13T01:12:50.484Z,57.55
2019-01-13T01:13:50.477Z,57.95
2019-01-13T01:14:50.449Z,57.85
2019-01-13T01:15:50.447Z,57.75
2019-01-13T01:16:50.428Z,57.65
2019-01-13T01:17:50.415Z,58.15
2019-01-13T01:18:50.408Z,57.87
2019-01-13T01:19:50.394Z,57.85
2019-01-13T01:20:50.390Z,57.95
2019-01-13T01:21:51.364Z,57.85
2019-01-13T01:22:50.360Z,57.95
2019-01-13T01:23:50.353Z,58.07
2019-01-13T01:24:50.338Z,57.87
2019-01-13T01:25:50.336Z,57.95
2019-01-13T01:26:50.317Z,58.05
2019-01-13T01:27:50.306Z,57.75
2019-01-13T01:28:50.294Z,57.95
2019-01-13T01:29:50.282Z,57.98
2019-01-13T01:30:50.285Z,58.05
2019-01-13T01:31:50.258Z,57.57
2019-01-13T01:32:50.248Z,57.68
2019-01-13T01:33:50.236Z,57.75
2019-01-13T01:34:50.226Z,57.17
2019-01-13T01:35:50.217Z,57.45
2019-01-13T01:36:50.213Z,57.45
2019-01-13T01:37:50.191Z,57.35
2019-01-13T01:38:50.182Z,57.15
2019-01-13T01:39:50.170Z,57.37
2019-01-13T01:40:50.158Z,57.24
2019-01-13T01:41:51.034Z,57.28
2019-01-13T01:42:50.136Z,57.48
2019-01-13T01:43:50.126Z,57.15
2019-01-13T01:44:50.114Z,57.35
2019-01-13T01:45:50.104Z,57.35
2019-01-13T01:46:50.107Z,57.05
2019-01-13T01:47:50.082Z,57.28
2019-01-13T01:48:50.071Z,57.35
2019-01-13T01:49:50.057Z,57.24
2019-01-13T01:50:50.047Z,57.15
2019-01-13T01:51:50.044Z,57.37
2019-01-13T01:52:50.024Z,57.35
2019-01-13T01:53:50.015Z,57.55
2019-01-13T01:54:50.002Z,57.45
2019-01-13T01:55:49.991Z,57.35
2019-01-13T01:56:49.994Z,57.24
2019-01-13T01:57:49.967Z,57.45
2019-01-13T01:58:49.957Z,57.65
2019-01-13T01:59:49.945Z,57.65
2019-01-13T02:00:49.934Z,57.48
2019-01-13T02:01:49.931Z,57.55
2019-01-13T02:02:49.913Z,57.24
2019-01-13T02:03:49.901Z,57.45
2019-01-13T02:04:49.923Z,57.65
2019-01-13T02:05:49.878Z,57.48
2019-01-13T02:06:49.884Z,57.57
2019-01-13T02:07:49.857Z,57.48
2019-01-13T02:08:49.846Z,57.68
2019-01-13T02:09:49.833Z,57.68
2019-01-13T02:10:49.824Z,57.57
2019-01-13T02:11:49.822Z,57.48
2019-01-13T02:12:49.803Z,57.57
2019-01-13T02:13:49.788Z,57.65
2019-01-13T02:14:49.778Z,57.57
2019-01-13T02:15:49.767Z,57.68
2019-01-13T02:16:49.771Z,57.57
2019-01-13T02:17:49.744Z,57.78
2019-01-13T02:18:49.733Z,57.48
2019-01-13T02:19:49.722Z,57.68
2019-01-13T02:20:49.713Z,57.55
2019-01-13T02:21:49.701Z,57.55
2019-01-13T02:22:49.698Z,57.55
2019-01-13T02:23:49.679Z,57.55
2019-01-13T02:24:49.669Z,57.45
2019-01-13T02:25:49.655Z,57.55
2019-01-13T02:26:49.644Z,57.45
2019-01-13T02:27:49.640Z,57.45
2019-01-13T02:28:49.620Z,57.68
2019-01-13T02:29:49.611Z,57.68
2019-01-13T02:30:49.705Z,57.48
2019-01-13T02:31:49.588Z,57.55
2019-01-13T02:32:49.586Z,57.57
2019-01-13T02:33:49.564Z,57.65
2019-01-13T02:34:49.555Z,57.78
2019-01-13T02:35:49.547Z,57.65
2019-01-13T02:36:49.536Z,57.68
2019-01-13T02:37:49.528Z,57.68
2019-01-13T02:38:49.508Z,57.68
2019-01-13T02:39:49.499Z,57.37
2019-01-13T02:40:49.486Z,57.78
2019-01-13T02:41:49.477Z,57.78
2019-01-13T02:42:49.471Z,57.68
2019-01-13T02:43:49.453Z,57.78
2019-01-13T02:44:49.445Z,57.48
2019-01-13T02:45:49.431Z,57.68
2019-01-13T02:46:49.418Z,57.57
2019-01-13T02:47:49.417Z,57.57
2019-01-13T02:48:49.402Z,57.68
2019-01-13T02:49:49.389Z,57.68
2019-01-13T02:50:49.375Z,57.78
2019-01-13T02:51:49.378Z,57.68
2019-01-13T02:52:49.366Z,57.57
2019-01-13T02:53:49.341Z,57.57
2019-01-13T02:54:49.329Z,57.57
2019-01-13T02:55:49.320Z,57.78
2019-01-13T02:56:49.309Z,57.45
2019-01-13T02:57:49.310Z,57.24
2019-01-13T02:58:49.285Z,57.35
2019-01-13T02:59:49.272Z,57.57
2019-01-13T03:00:56.850Z,57.17
2019-01-13T03:01:50.249Z,57.07
2019-01-13T03:02:49.253Z,57.85
2019-01-13T03:03:49.229Z,57.37
2019-01-13T03:04:49.218Z,57.24
2019-01-13T03:05:49.206Z,57.28
2019-01-13T03:06:49.195Z,57.07
2019-01-13T03:07:49.186Z,57.35
2019-01-13T03:08:49.181Z,57.07
2019-01-13T03:09:49.162Z,57.05
2019-01-13T03:10:49.151Z,57.28
2019-01-13T03:11:49.138Z,57.68
2019-01-13T03:12:49.129Z,56.98
2019-01-13T03:13:49.126Z,57.24
2019-01-13T03:14:49.107Z,57.17
2019-01-13T03:15:49.094Z,57.37
2019-01-13T03:16:49.087Z,57.37
2019-01-13T03:17:49.075Z,57.17
2019-01-13T03:18:49.071Z,57.48
2019-01-13T03:19:49.051Z,57.28
2019-01-13T03:20:49.041Z,57.07
2019-01-13T03:21:49.027Z,57.28
2019-01-13T03:22:49.020Z,57.37
2019-01-13T03:23:49.013Z,57.28
2019-01-13T03:24:48.994Z,57.37
2019-01-13T03:25:48.985Z,57.17
2019-01-13T03:26:48.972Z,57.15
2019-01-13T03:27:48.961Z,57.37
2019-01-13T03:28:48.956Z,57.37
2019-01-13T03:29:48.937Z,57.17
2019-01-13T03:30:48.927Z,57.35
2019-01-13T03:31:48.922Z,57.05
2019-01-13T03:32:48.913Z,57.24
2019-01-13T03:33:48.906Z,57.37
2019-01-13T03:34:48.881Z,57.07
2019-01-13T03:35:48.873Z,56.98
2019-01-13T03:36:48.863Z,56.98
2019-01-13T03:37:48.849Z,56.98
2019-01-13T03:38:48.846Z,57.24
2019-01-13T03:39:48.826Z,56.87
2019-01-13T03:40:48.818Z,57.37
2019-01-13T03:41:48.806Z,56.98
2019-01-13T03:42:48.792Z,57.05
2019-01-13T03:43:48.795Z,57.15
2019-01-13T03:44:48.770Z,57.17
2019-01-13T03:45:48.764Z,57.05
2019-01-13T03:46:48.748Z,57.17
2019-01-13T03:47:48.736Z,56.98
2019-01-13T03:48:48.725Z,57.07
2019-01-13T03:49:48.721Z,56.77
2019-01-13T03:50:48.703Z,56.98
2019-01-13T03:51:48.690Z,57.57
2019-01-13T03:52:53.221Z,57.07
2019-01-13T03:53:48.671Z,56.98
2019-01-13T03:54:48.666Z,56.85
2019-01-13T03:55:48.646Z,57.17
2019-01-13T03:56:48.635Z,57.17
2019-01-13T03:57:48.625Z,57.28
2019-01-13T03:58:48.612Z,57.37
2019-01-13T03:59:48.615Z,56.98
2019-01-13T04:00:48.590Z,57.37
2019-01-13T04:01:48.582Z,57.17
2019-01-13T04:02:48.566Z,57.07
2019-01-13T04:03:48.558Z,57.17
2019-01-13T04:04:48.556Z,57.07
2019-01-13T04:05:48.534Z,57.07
2019-01-13T04:06:48.523Z,56.98
2019-01-13T04:07:48.514Z,56.87
2019-01-13T04:08:48.501Z,57.37
2019-01-13T04:09:48.497Z,56.98
2019-01-13T04:10:48.479Z,57.07
2019-01-13T04:11:48.467Z,57.28
2019-01-13T04:12:48.456Z,57.07
2019-01-13T04:13:48.448Z,57.17
2019-01-13T04:14:48.447Z,57.07
2019-01-13T04:15:48.421Z,56.98
2019-01-13T04:16:48.410Z,57.17
2019-01-13T04:17:48.402Z,57.68
2019-01-13T04:18:48.392Z,56.87
2019-01-13T04:19:48.385Z,56.87
2019-01-13T04:20:48.365Z,56.87
2019-01-13T04:21:48.405Z,56.87
2019-01-13T04:22:48.349Z,57.68
2019-01-13T04:23:48.331Z,57.07
2019-01-13T04:24:48.334Z,57.07
2019-01-13T04:25:48.310Z,57.07
2019-01-13T04:26:48.302Z,56.98
2019-01-13T04:27:48.287Z,57.17
2019-01-13T04:28:48.276Z,57.07
2019-01-13T04:29:48.265Z,56.87
2019-01-13T04:30:48.263Z,56.98
2019-01-13T04:31:48.242Z,56.98
2019-01-13T04:32:48.231Z,57.37
2019-01-13T04:33:48.221Z,57.37
2019-01-13T04:34:48.209Z,56.57
2019-01-13T04:35:48.207Z,56.87
2019-01-13T04:36:48.187Z,56.98
2019-01-13T04:37:48.175Z,56.77
2019-01-13T04:38:48.166Z,57.28
2019-01-13T04:39:48.154Z,57.28
2019-01-13T04:40:48.150Z,57.28
2019-01-13T04:41:48.132Z,56.87
2019-01-13T04:42:48.120Z,57.35
2019-01-13T04:43:48.109Z,57.37
2019-01-13T04:44:48.097Z,56.77
2019-01-13T04:45:48.097Z,56.74
2019-01-13T04:46:48.075Z,57.28
2019-01-13T04:47:48.063Z,57.28
2019-01-13T04:48:48.053Z,57.28
2019-01-13T04:49:48.041Z,57.17
2019-01-13T04:50:48.040Z,57.28
2019-01-13T04:51:48.019Z,57.37
2019-01-13T04:52:48.009Z,57.28
2019-01-13T04:53:47.999Z,57.48
2019-01-13T04:54:47.987Z,56.57
2019-01-13T04:55:47.983Z,56.77
2019-01-13T04:56:47.969Z,57.10
2019-01-13T04:57:47.951Z,56.98
2019-01-13T04:58:47.943Z,56.87
2019-01-13T04:59:47.929Z,57.17
2019-01-13T05:00:47.928Z,56.77
2019-01-13T05:01:47.908Z,57.37
2019-01-13T05:02:47.905Z,57.20
2019-01-13T05:03:47.887Z,56.57
2019-01-13T05:04:47.879Z,56.57
2019-01-13T05:05:47.873Z,57.17
2019-01-13T05:06:47.852Z,57.48
2019-01-13T05:07:47.859Z,56.77
2019-01-13T05:08:47.828Z,57.28
2019-01-13T05:09:47.819Z,57.17
2019-01-13T05:10:47.809Z,56.90
2019-01-13T05:11:47.803Z,56.67
2019-01-13T05:12:47.786Z,56.77
2019-01-13T05:13:47.775Z,56.98
2019-01-13T05:14:47.761Z,57.30
2019-01-13T05:15:47.750Z,56.87
2019-01-13T05:16:47.748Z,57.37
2019-01-13T05:17:47.729Z,57.28
2019-01-13T05:18:47.718Z,57.28
2019-01-13T05:19:47.705Z,56.77
2019-01-13T05:20:47.695Z,57.37
2019-01-13T05:21:47.692Z,56.87
2019-01-13T05:22:47.671Z,57.28
2019-01-13T05:23:47.659Z,56.57
2019-01-13T05:24:47.648Z,56.57
2019-01-13T05:25:47.638Z,57.48
2019-01-13T05:26:47.636Z,57.37
2019-01-13T05:27:47.618Z,56.87
2019-01-13T05:28:47.607Z,56.57
2019-01-13T05:29:47.592Z,56.57
2019-01-13T05:30:47.580Z,56.77
2019-01-13T05:31:47.581Z,56.77
2019-01-13T05:32:47.560Z,57.07
2019-01-13T05:33:47.548Z,56.77
2019-01-13T05:34:47.538Z,56.48
2019-01-13T05:35:47.527Z,57.30
2019-01-13T05:36:47.522Z,56.87
2019-01-13T05:37:47.503Z,56.37
2019-01-13T05:38:47.490Z,56.87
2019-01-13T05:39:47.481Z,56.87
2019-01-13T05:40:47.470Z,57.28
2019-01-13T05:41:47.466Z,56.70
2019-01-13T05:42:47.451Z,57.40
2019-01-13T05:43:47.435Z,57.28
2019-01-13T05:44:47.427Z,56.77
2019-01-13T05:45:47.413Z,56.77
2019-01-13T05:46:47.414Z,57.07
2019-01-13T05:47:47.398Z,57.30
2019-01-13T05:48:47.381Z,56.77
2019-01-13T05:49:47.368Z,56.70
2019-01-13T05:50:47.357Z,57.40
2019-01-13T05:51:47.359Z,57.28
2019-01-13T05:52:47.333Z,57.00
2019-01-13T05:53:47.326Z,57.50
2019-01-13T05:54:47.312Z,57.28
2019-01-13T05:55:47.301Z,57.28
2019-01-13T05:56:47.288Z,57.28
2019-01-13T05:57:47.288Z,57.30
2019-01-13T05:58:47.267Z,56.87
2019-01-13T05:59:47.255Z,56.80
2019-01-13T06:00:47.245Z,57.30
2019-01-13T06:01:49.326Z,56.60
2019-01-13T06:02:47.229Z,56.77
2019-01-13T06:03:47.213Z,57.07
2019-01-13T06:04:47.199Z,57.00
2019-01-13T06:05:47.191Z,57.07
2019-01-13T06:06:47.177Z,56.80
2019-01-13T06:07:47.178Z,55.60
2019-01-13T06:08:47.157Z,56.87
2019-01-13T06:09:47.143Z,57.00
2019-01-13T06:10:47.131Z,57.50
2019-01-13T06:11:47.123Z,56.87
2019-01-13T06:12:47.122Z,56.77
2019-01-13T06:13:47.100Z,56.80
2019-01-13T06:14:47.088Z,56.87
2019-01-13T06:15:47.079Z,56.60
2019-01-13T06:16:47.065Z,57.30
2019-01-13T06:17:47.062Z,56.70
2019-01-13T06:18:47.042Z,56.80
2019-01-13T06:19:47.034Z,56.87
2019-01-13T06:20:47.021Z,57.28
2019-01-13T06:21:47.009Z,56.98
2019-01-13T06:22:47.007Z,56.77
2019-01-13T06:23:46.987Z,56.77
2019-01-13T06:24:46.976Z,56.98
2019-01-13T06:25:46.965Z,56.77
2019-01-13T06:26:46.954Z,56.20
2019-01-13T06:27:46.950Z,56.77
2019-01-13T06:28:46.930Z,56.87
2019-01-13T06:29:46.924Z,57.00
2019-01-13T06:30:46.910Z,56.80
2019-01-13T06:31:46.898Z,56.77
2019-01-13T06:32:46.900Z,57.07
2019-01-13T06:33:46.875Z,56.77
2019-01-13T06:34:46.863Z,56.80
2019-01-13T06:35:46.853Z,56.67
2019-01-13T06:36:46.842Z,57.00
2019-01-13T06:37:46.833Z,56.80
2019-01-13T06:38:46.826Z,56.98
2019-01-13T06:39:46.809Z,56.80
2019-01-13T06:40:46.798Z,57.00
2019-01-13T06:41:46.784Z,56.80
2019-01-13T06:42:46.774Z,57.00
2019-01-13T06:43:46.771Z,56.77
2019-01-13T06:44:46.751Z,57.10
2019-01-13T06:45:46.741Z,57.00
2019-01-13T06:46:46.731Z,57.10
2019-01-13T06:47:46.719Z,57.00
2019-01-13T06:48:46.719Z,56.80
2019-01-13T06:49:46.700Z,56.67
2019-01-13T06:50:46.684Z,57.00
2019-01-13T06:51:46.674Z,57.10
2019-01-13T06:52:46.663Z,57.00
2019-01-13T06:53:46.662Z,56.80
2019-01-13T06:54:46.638Z,57.00
2019-01-13T06:55:46.631Z,56.70
2019-01-13T06:56:46.616Z,56.87
2019-01-13T06:57:46.606Z,55.47
2019-01-13T06:58:46.604Z,57.10
2019-01-13T06:59:46.585Z,56.77
2019-01-13T07:00:46.571Z,57.00
2019-01-13T07:01:46.562Z,57.00
2019-01-13T07:02:46.556Z,57.10
2019-01-13T07:03:46.546Z,56.70
2019-01-13T07:04:46.528Z,56.67
2019-01-13T07:05:46.516Z,57.10
2019-01-13T07:06:46.505Z,56.70
2019-01-13T07:07:46.495Z,56.57
2019-01-13T07:08:46.492Z,56.70
2019-01-13T07:09:46.476Z,56.80
2019-01-13T07:10:46.461Z,56.70
2019-01-13T07:11:46.450Z,56.80
2019-01-13T07:12:46.437Z,57.10
2019-01-13T07:13:46.437Z,56.67
2019-01-13T07:14:46.417Z,57.00
2019-01-13T07:15:46.403Z,56.80
2019-01-13T07:16:46.393Z,55.70
2019-01-13T07:17:46.382Z,56.80
2019-01-13T07:18:46.379Z,57.10
2019-01-13T07:19:46.360Z,57.10
2019-01-13T07:20:46.347Z,56.80
2019-01-13T07:21:46.336Z,56.77
2019-01-13T07:22:46.326Z,56.70
2019-01-13T07:23:46.328Z,56.80
2019-01-13T07:24:46.304Z,56.80
2019-01-13T07:25:46.292Z,57.00
2019-01-13T07:26:46.282Z,56.98
2019-01-13T07:27:46.271Z,55.50
2019-01-13T07:28:46.259Z,57.10
2019-01-13T07:29:46.255Z,56.70
2019-01-13T07:30:46.236Z,56.80
2019-01-13T07:31:46.225Z,57.00
2019-01-13T07:32:46.215Z,56.90
2019-01-13T07:33:46.207Z,56.80
2019-01-13T07:34:46.201Z,56.80
2019-01-13T07:35:46.181Z,56.70
2019-01-13T07:36:46.170Z,57.00
2019-01-13T07:37:46.157Z,56.70
2019-01-13T07:38:46.148Z,57.00
2019-01-13T07:39:46.143Z,56.80
2019-01-13T07:40:46.124Z,56.70
2019-01-13T07:41:46.111Z,56.80
2019-01-13T07:42:46.101Z,57.10
2019-01-13T07:43:46.090Z,56.90
2019-01-13T07:44:46.090Z,56.70
2019-01-13T07:45:46.068Z,56.60
2019-01-13T07:46:46.057Z,57.00
2019-01-13T07:47:46.045Z,56.80
2019-01-13T07:48:46.033Z,56.80
2019-01-13T07:49:46.030Z,56.90
2019-01-13T07:50:46.011Z,56.87
2019-01-13T07:51:45.999Z,56.80
2019-01-13T07:52:45.991Z,56.90
2019-01-13T07:53:45.980Z,56.70
2019-01-13T07:54:45.975Z,56.70
2019-01-13T07:55:45.955Z,56.70
2019-01-13T07:56:45.944Z,56.70
2019-01-13T07:57:45.931Z,56.80
2019-01-13T07:58:45.923Z,57.10
2019-01-13T07:59:45.917Z,56.90
2019-01-13T08:00:45.900Z,56.80
2019-01-13T08:01:45.890Z,57.00
2019-01-13T08:02:45.879Z,56.90
2019-01-13T08:03:45.865Z,56.90
2019-01-13T08:04:45.865Z,57.00
2019-01-13T08:05:45.843Z,56.70
2019-01-13T08:06:45.834Z,56.70
2019-01-13T08:07:45.822Z,56.80
2019-01-13T08:08:45.809Z,56.80
2019-01-13T08:09:45.822Z,57.00
2019-01-13T08:10:45.807Z,57.00
2019-01-13T08:11:45.785Z,56.80
2019-01-13T08:12:45.792Z,57.10
2019-01-13T08:13:45.759Z,56.80
2019-01-13T08:14:45.741Z,57.00
2019-01-13T08:15:45.738Z,57.10
2019-01-13T08:16:45.719Z,56.80
2019-01-13T08:17:45.707Z,57.00
2019-01-13T08:18:45.696Z,57.10
2019-01-13T08:19:45.690Z,57.10
2019-01-13T08:20:45.682Z,56.80
2019-01-13T08:21:45.663Z,57.00
2019-01-13T08:22:45.652Z,57.10
2019-01-13T08:23:45.640Z,56.90
2019-01-13T08:24:45.633Z,56.80
2019-01-13T08:25:45.628Z,56.90
2019-01-13T08:26:45.607Z,56.70
2019-01-13T08:27:45.598Z,56.80
2019-01-13T08:28:45.584Z,57.00
2019-01-13T08:29:45.585Z,57.00
2019-01-13T08:30:45.571Z,56.90
2019-01-13T08:31:45.554Z,56.70
2019-01-13T08:32:45.541Z,57.00
2019-01-13T08:33:45.529Z,57.00
2019-01-13T08:34:45.516Z,57.10
2019-01-13T08:35:45.514Z,56.52
2019-01-13T08:36:45.496Z,57.40
2019-01-13T08:37:45.492Z,57.30
2019-01-13T08:38:45.474Z,57.00
2019-01-13T08:39:45.465Z,56.80
2019-01-13T08:40:45.462Z,57.37
2019-01-13T08:41:45.439Z,56.90
2019-01-13T08:42:45.435Z,57.07
2019-01-13T08:43:45.428Z,56.98
2019-01-13T08:44:45.410Z,56.77
2019-01-13T08:45:50.220Z,57.07
2019-01-13T08:46:46.385Z,57.24
2019-01-13T08:47:45.378Z,57.65
2019-01-13T08:48:45.365Z,57.15
2019-01-13T08:49:45.349Z,57.55
2019-01-13T08:50:45.352Z,57.75
2019-01-13T08:51:45.330Z,58.85
2019-01-13T08:52:45.315Z,58.75
2019-01-13T08:53:45.304Z,59.45
2019-01-13T08:54:45.294Z,59.45
2019-01-13T08:55:45.296Z,59.95
2019-01-13T08:56:45.269Z,60.12
2019-01-13T08:57:45.262Z,60.12
2019-01-13T08:58:45.250Z,60.32
2019-01-13T08:59:45.239Z,60.72
2019-01-13T09:00:45.229Z,60.62
2019-01-13T09:01:45.227Z,60.42
2019-01-13T09:02:45.206Z,60.59
2019-01-13T09:03:45.192Z,60.52
2019-01-13T09:04:45.189Z,60.12
2019-01-13T09:05:45.184Z,59.39
2019-01-13T09:06:45.170Z,60.19
2019-01-13T09:07:45.155Z,58.86
2019-01-13T09:08:45.138Z,58.86
2019-01-13T09:09:45.126Z,59.06
2019-01-13T09:10:45.116Z,58.86
2019-01-13T09:11:45.115Z,58.37
2019-01-13T09:12:45.093Z,58.56
2019-01-13T09:13:45.083Z,58.97
2019-01-13T09:14:45.066Z,58.97
2019-01-13T09:15:45.060Z,59.27
2019-01-13T09:16:45.058Z,59.04
2019-01-13T09:17:45.038Z,58.84
2019-01-13T09:18:45.026Z,59.34
2019-01-13T09:19:45.020Z,59.34
2019-01-13T09:20:45.002Z,58.73
2019-01-13T09:21:45.001Z,58.94
2019-01-13T09:22:44.978Z,58.84
2019-01-13T09:23:44.965Z,58.94
2019-01-13T09:24:44.954Z,59.14
2019-01-13T09:25:44.951Z,58.14
2019-01-13T09:26:50.966Z,58.64
2019-01-13T09:27:45.921Z,58.84
2019-01-13T09:28:44.911Z,58.24
2019-01-13T09:29:44.900Z,58.04
2019-01-13T09:30:44.893Z,57.64
2019-01-13T09:31:44.891Z,57.91
2019-01-13T09:32:44.864Z,57.51
2019-01-13T09:33:44.853Z,57.71
2019-01-13T09:34:44.841Z,57.81
2019-01-13T09:35:44.831Z,57.11
2019-01-13T09:36:44.834Z,57.11
2019-01-13T09:37:44.811Z,57.11
2019-01-13T09:38:44.796Z,57.31
2019-01-13T09:39:44.796Z,57.11
2019-01-13T09:40:44.772Z,57.11
2019-01-13T09:41:44.770Z,57.41
2019-01-13T09:42:44.750Z,57.51
2019-01-13T09:43:44.742Z,57.39
2019-01-13T09:44:44.728Z,57.18
2019-01-13T09:45:44.719Z,56.88
2019-01-13T09:46:44.719Z,56.98
2019-01-13T09:47:44.695Z,56.88
2019-01-13T09:48:44.684Z,56.98
2019-01-13T09:49:49.886Z,56.88
2019-01-13T09:50:45.660Z,57.09
2019-01-13T09:51:44.649Z,56.98
2019-01-13T09:52:44.647Z,57.18
2019-01-13T09:53:44.629Z,57.48
2019-01-13T09:54:44.617Z,57.28
2019-01-13T09:55:44.603Z,57.09
2019-01-13T09:56:44.592Z,56.88
2019-01-13T09:57:44.589Z,56.98
2019-01-13T09:58:44.574Z,57.48
2019-01-13T09:59:44.566Z,57.48
2019-01-13T10:00:44.549Z,57.39
2019-01-13T10:01:44.536Z,57.48
2019-01-13T10:02:46.836Z,57.39
2019-01-13T10:03:44.521Z,57.09
2019-01-13T10:04:44.503Z,57.26
2019-01-13T10:05:44.490Z,57.06
2019-01-13T10:06:44.480Z,56.83
2019-01-13T10:07:44.477Z,56.93
2019-01-13T10:08:44.458Z,56.73
2019-01-13T10:09:44.445Z,56.83
2019-01-13T10:10:44.433Z,57.33
2019-01-13T10:11:44.423Z,57.33
2019-01-13T10:12:44.420Z,56.93
2019-01-13T10:13:44.399Z,57.53
2019-01-13T10:14:44.390Z,57.03
2019-01-13T10:15:45.668Z,56.93
2019-01-13T10:16:44.367Z,56.70
2019-01-13T10:17:44.365Z,57.00
2019-01-13T10:18:44.345Z,57.10
2019-01-13T10:19:44.333Z,56.51
2019-01-13T10:20:44.322Z,56.48
2019-01-13T10:21:44.312Z,56.70
2019-01-13T10:22:44.313Z,56.48
2019-01-13T10:23:44.287Z,56.48
2019-01-13T10:24:44.280Z,56.40
2019-01-13T10:25:44.267Z,56.51
2019-01-13T10:26:44.255Z,56.57
2019-01-13T10:27:44.243Z,56.57
2019-01-13T10:28:44.242Z,55.28
2019-01-13T10:29:44.221Z,55.08
2019-01-13T10:30:44.210Z,54.46
2019-01-13T10:31:44.199Z,55.18
2019-01-13T10:32:44.186Z,54.98
2019-01-13T10:33:44.184Z,55.58
2019-01-13T10:34:44.165Z,55.28
2019-01-13T10:35:44.154Z,54.38
2019-01-13T10:36:44.142Z,54.98
2019-01-13T10:37:44.182Z,54.88
2019-01-13T10:38:44.131Z,54.46
2019-01-13T10:39:44.111Z,54.26
2019-01-13T10:40:44.099Z,54.66
2019-01-13T10:41:44.088Z,54.56
2019-01-13T10:42:44.075Z,53.96
2019-01-13T10:43:44.073Z,53.86
2019-01-13T10:44:44.054Z,53.76
2019-01-13T10:45:44.042Z,53.46
2019-01-13T10:46:44.035Z,53.34
2019-01-13T10:47:44.081Z,53.56
2019-01-13T10:48:44.017Z,53.74
2019-01-13T10:49:43.999Z,53.74
2019-01-13T10:50:43.987Z,53.76
2019-01-13T10:51:43.988Z,53.94
2019-01-13T10:52:43.963Z,53.46
2019-01-13T10:53:43.963Z,53.83
2019-01-13T10:54:43.943Z,53.94
2019-01-13T10:55:43.930Z,53.94
2019-01-13T10:56:43.920Z,54.03
2019-01-13T10:57:43.909Z,53.64
2019-01-13T10:58:43.906Z,53.34
2019-01-13T10:59:43.887Z,53.83
2019-01-13T11:00:43.875Z,53.27
2019-01-13T11:01:43.864Z,53.64
2019-01-13T11:02:43.854Z,53.74
2019-01-13T11:03:43.864Z,53.64
2019-01-13T11:04:43.832Z,53.64
2019-01-13T11:05:43.820Z,53.44
2019-01-13T11:06:43.810Z,53.83
2019-01-13T11:07:43.798Z,53.53
2019-01-13T11:08:43.793Z,53.41
2019-01-13T11:09:43.785Z,53.11
2019-01-13T11:10:43.764Z,53.41
2019-01-13T11:11:43.753Z,53.31
2019-01-13T11:12:43.744Z,53.51
2019-01-13T11:13:43.732Z,53.11
2019-01-13T11:14:43.733Z,53.11
2019-01-13T11:15:43.711Z,53.11
2019-01-13T11:16:43.698Z,53.31
2019-01-13T11:17:43.688Z,52.91
2019-01-13T11:18:43.677Z,53.41
2019-01-13T11:19:43.676Z,53.61
2019-01-13T11:20:43.655Z,53.21
2019-01-13T11:21:43.643Z,52.81
2019-01-13T11:22:43.632Z,53.51
2019-01-13T11:23:43.622Z,52.79
2019-01-13T11:24:43.619Z,52.81
2019-01-13T11:25:43.599Z,52.79
2019-01-13T11:26:43.588Z,52.79
2019-01-13T11:27:43.578Z,52.69
2019-01-13T11:28:43.568Z,52.72
2019-01-13T11:29:43.564Z,52.89
2019-01-13T11:30:44.263Z,52.69
2019-01-13T11:31:43.535Z,52.72
2019-01-13T11:32:43.528Z,52.12
2019-01-13T11:33:43.513Z,52.24
2019-01-13T11:34:43.513Z,52.44
2019-01-13T11:35:43.491Z,53.04
2019-01-13T11:36:43.478Z,52.57
2019-01-13T11:37:43.469Z,52.84
2019-01-13T11:38:43.457Z,52.94
2019-01-13T11:39:43.454Z,52.34
2019-01-13T11:40:43.435Z,52.44
2019-01-13T11:41:43.422Z,51.84
2019-01-13T11:42:43.412Z,51.95
2019-01-13T11:43:43.400Z,52.34
2019-01-13T11:44:43.413Z,52.44
2019-01-13T11:45:43.379Z,51.75
2019-01-13T11:46:43.368Z,52.24
2019-01-13T11:47:43.357Z,51.65
2019-01-13T11:48:43.347Z,51.84
2019-01-13T11:49:43.340Z,51.84
2019-01-13T11:50:43.334Z,52.34
2019-01-13T11:51:43.314Z,52.24
2019-01-13T11:52:43.300Z,51.97
2019-01-13T11:53:43.291Z,52.24
2019-01-13T11:54:43.279Z,52.24
2019-01-13T11:55:43.279Z,51.84
2019-01-13T11:56:43.261Z,51.25
2019-01-13T11:57:43.246Z,51.32
2019-01-13T11:58:43.235Z,51.52
2019-01-13T11:59:43.225Z,51.45
2019-01-13T12:00:43.220Z,51.15
2019-01-13T12:01:43.202Z,51.42
2019-01-13T12:02:43.190Z,51.62
2019-01-13T12:03:43.184Z,51.22
2019-01-13T12:04:43.170Z,51.54
2019-01-13T12:05:43.171Z,51.54
2019-01-13T12:06:43.147Z,51.03
2019-01-13T12:07:43.134Z,51.25
2019-01-13T12:08:43.124Z,51.12
2019-01-13T12:09:43.113Z,51.62
2019-01-13T12:10:43.110Z,51.03
2019-01-13T12:11:43.090Z,51.03
2019-01-13T12:12:43.081Z,51.22
2019-01-13T12:13:43.069Z,51.22
2019-01-13T12:14:43.060Z,51.62
2019-01-13T12:15:43.061Z,51.12
2019-01-13T12:16:43.037Z,50.93
2019-01-13T12:17:43.026Z,51.52
2019-01-13T12:18:43.021Z,51.62
2019-01-13T12:19:43.002Z,51.22
2019-01-13T12:20:43.001Z,50.93
2019-01-13T12:21:42.980Z,51.12
2019-01-13T12:22:42.971Z,51.03
2019-01-13T12:23:42.961Z,51.03
2019-01-13T12:24:42.949Z,50.82
2019-01-13T12:25:42.944Z,51.32
2019-01-13T12:26:42.926Z,51.03
2019-01-13T12:27:42.916Z,51.42
2019-01-13T12:28:42.904Z,50.73
2019-01-13T12:29:42.891Z,51.03
2019-01-13T12:30:42.881Z,51.22
2019-01-13T12:31:42.879Z,51.03
2019-01-13T12:32:42.858Z,51.75
2019-01-13T12:33:42.848Z,51.62
2019-01-13T12:34:42.837Z,51.35
2019-01-13T12:35:42.827Z,51.45
2019-01-13T12:36:42.828Z,51.05
2019-01-13T12:37:42.806Z,51.45
2019-01-13T12:38:42.793Z,51.15
2019-01-13T12:39:42.782Z,51.35
2019-01-13T12:40:42.771Z,51.22
2019-01-13T12:41:42.768Z,51.15
2019-01-13T12:42:42.748Z,51.15
2019-01-13T12:43:42.737Z,51.15
2019-01-13T12:44:42.728Z,51.15
2019-01-13T12:45:42.730Z,51.32
2019-01-13T12:46:42.723Z,51.52
2019-01-13T12:47:42.692Z,51.22
2019-01-13T12:48:42.681Z,51.22
2019-01-13T12:49:42.669Z,51.32
2019-01-13T12:50:42.660Z,51.92
2019-01-13T12:51:42.661Z,51.62
2019-01-13T12:52:42.637Z,51.92